createdAt,value
2018-11-25T00:00:49.840Z,979.727
2018-11-25T00:02:49.878Z,979.676
2018-11-25T00:04:50.226Z,979.685
2018-11-25T00:06:50.280Z,979.687
2018-11-25T00:08:50.349Z,979.700
2018-11-25T00:10:50.353Z,979.697
2018-11-25T00:12:50.412Z,979.692
2018-11-25T00:14:50.476Z,979.681
2018-11-25T00:16:49.696Z,979.659
2018-11-25T00:18:49.734Z,979.654
2018-11-25T00:20:49.722Z,979.635
2018-11-25T00:22:49.868Z,979.615
2018-11-25T00:24:49.819Z,979.608
2018-11-25T00:26:50.089Z,979.601
2018-11-25T00:28:50.080Z,979.589
2018-11-25T00:30:50.082Z,979.610
2018-11-25T00:32:50.032Z,979.631
2018-11-25T00:34:50.411Z,979.631
2018-11-25T00:36:49.733Z,979.622
2018-11-25T00:38:49.742Z,979.620
2018-11-25T00:40:49.790Z,979.616
2018-11-25T00:42:49.853Z,979.614
2018-11-25T00:44:49.916Z,979.618
2018-11-25T00:46:50.243Z,979.641
2018-11-25T00:48:50.246Z,979.676
2018-11-25T00:50:50.335Z,979.676
2018-11-25T00:52:50.372Z,979.670
2018-11-25T00:54:50.390Z,979.668
2018-11-25T00:56:49.750Z,979.662
2018-11-25T00:58:49.805Z,979.605
2018-11-25T01:00:49.768Z,979.580
2018-11-25T01:02:49.804Z,979.572
2018-11-25T01:04:50.135Z,979.564
2018-11-25T01:06:50.295Z,979.524
2018-11-25T01:08:50.384Z,979.513
2018-11-25T01:10:50.376Z,979.518
2018-11-25T01:12:50.393Z,979.530
2018-11-25T01:14:50.378Z,979.530
2018-11-25T01:16:49.745Z,979.526
2018-11-25T01:18:49.788Z,979.529
2018-11-25T01:20:49.847Z,979.494
2018-11-25T01:22:49.839Z,979.453
2018-11-25T01:24:49.807Z,979.453
2018-11-25T01:26:50.110Z,979.431
2018-11-25T01:28:50.073Z,979.400
2018-11-25T01:30:50.126Z,979.391
2018-11-25T01:32:50.171Z,979.391
2018-11-25T01:34:50.582Z,979.411
2018-11-25T01:36:49.961Z,979.436
2018-11-25T01:38:49.951Z,979.438
2018-11-25T01:40:49.915Z,979.450
2018-11-25T01:42:49.880Z,979.449
2018-11-25T01:44:49.867Z,979.406
2018-11-25T01:46:50.140Z,979.406
2018-11-25T01:48:50.220Z,979.356
2018-11-25T01:50:50.297Z,979.356
2018-11-25T01:52:50.298Z,979.363
2018-11-25T01:54:50.297Z,979.368
2018-11-25T01:56:50.519Z,979.348
2018-11-25T01:58:50.480Z,979.316
2018-11-25T02:00:50.545Z,979.316
2018-11-25T02:02:50.531Z,979.211
2018-11-25T02:04:49.916Z,979.188
2018-11-25T02:06:50.119Z,979.148
2018-11-25T02:08:50.134Z,979.139
2018-11-25T02:10:50.109Z,979.126
2018-11-25T02:12:50.233Z,979.113
2018-11-25T02:14:50.208Z,979.094
2018-11-25T02:16:50.347Z,979.052
2018-11-25T02:18:50.269Z,979.052
2018-11-25T02:20:50.316Z,978.987
2018-11-25T02:22:50.351Z,978.976
2018-11-25T02:24:50.318Z,978.967
2018-11-25T02:26:50.571Z,978.957
2018-11-25T02:28:50.512Z,978.957
2018-11-25T02:30:49.625Z,978.960
2018-11-25T02:32:49.663Z,978.953
2018-11-25T02:34:50.181Z,978.941
2018-11-25T02:36:50.440Z,978.925
2018-11-25T02:38:50.471Z,978.906
2018-11-25T02:40:50.517Z,978.919
2018-11-25T02:42:50.441Z,978.925
2018-11-25T02:44:50.445Z,978.894
2018-11-25T02:46:49.792Z,978.872
2018-11-25T02:48:49.903Z,978.827
2018-11-25T02:50:49.931Z,978.806
2018-11-25T02:52:50.035Z,978.787
2018-11-25T02:54:50.094Z,978.784
2018-11-25T02:56:50.345Z,978.774
2018-11-25T02:58:50.371Z,978.760
2018-11-25T03:00:50.404Z,978.745
2018-11-25T03:02:50.465Z,978.754
2018-11-25T03:04:50.083Z,978.762
2018-11-25T03:06:50.216Z,978.757
2018-11-25T03:08:50.375Z,978.753
2018-11-25T03:10:50.410Z,978.746
2018-11-25T03:12:50.453Z,978.746
2018-11-25T03:14:50.391Z,978.724
2018-11-25T03:16:50.591Z,978.732
2018-11-25T03:18:49.605Z,978.702
2018-11-25T03:20:50.588Z,978.680
2018-11-25T03:22:49.697Z,978.680
2018-11-25T03:24:49.633Z,978.670
2018-11-25T03:26:49.812Z,978.661
2018-11-25T03:28:49.888Z,978.636
2018-11-25T03:30:49.938Z,978.633
2018-11-25T03:32:50.139Z,978.632
2018-11-25T03:34:50.412Z,978.611
2018-11-25T03:36:50.543Z,978.605
2018-11-25T03:38:49.609Z,978.569
2018-11-25T03:40:49.709Z,978.559
2018-11-25T03:42:49.751Z,978.547
2018-11-25T03:44:49.887Z,978.556
2018-11-25T03:46:50.000Z,978.564
2018-11-25T03:48:50.087Z,978.556
2018-11-25T03:50:50.103Z,978.555
2018-11-25T03:52:50.177Z,978.542
2018-11-25T03:54:50.197Z,978.534
2018-11-25T03:56:50.332Z,978.538
2018-11-25T03:58:50.407Z,978.538
2018-11-25T04:00:50.373Z,978.454
2018-11-25T04:02:50.448Z,978.423
2018-11-25T04:04:49.968Z,978.424
2018-11-25T04:06:50.130Z,978.465
2018-11-25T04:08:50.166Z,978.465
2018-11-25T04:10:50.219Z,978.440
2018-11-25T04:12:50.199Z,978.410
2018-11-25T04:14:50.239Z,978.387
2018-11-25T04:16:50.434Z,978.362
2018-11-25T04:18:50.465Z,978.368
2018-11-25T04:20:50.563Z,978.374
2018-11-25T04:22:49.711Z,978.379
2018-11-25T04:24:49.668Z,978.379
2018-11-25T04:26:50.073Z,978.413
2018-11-25T04:28:50.130Z,978.411
2018-11-25T04:30:50.107Z,978.401
2018-11-25T04:32:50.068Z,978.400
2018-11-25T04:34:50.423Z,978.373
2018-11-25T04:36:50.582Z,978.373
2018-11-25T04:38:50.587Z,978.366
2018-11-25T04:40:50.618Z,978.370
2018-11-25T04:42:49.606Z,978.369
2018-11-25T04:44:49.706Z,978.366
2018-11-25T04:46:50.124Z,978.351
2018-11-25T04:48:50.216Z,978.328
2018-11-25T04:50:50.214Z,978.302
2018-11-25T04:52:50.275Z,978.256
2018-11-25T04:54:50.343Z,978.242
2018-11-25T04:56:50.479Z,978.236
2018-11-25T04:58:50.504Z,978.236
2018-11-25T05:00:50.432Z,978.223
2018-11-25T05:02:50.471Z,978.219
2018-11-25T05:04:49.886Z,978.201
2018-11-25T05:06:50.100Z,978.176
2018-11-25T05:08:50.083Z,978.183
2018-11-25T05:10:50.165Z,978.180
2018-11-25T05:12:50.188Z,978.180
2018-11-25T05:14:50.168Z,978.176
2018-11-25T05:16:50.427Z,978.191
2018-11-25T05:18:50.383Z,978.186
2018-11-25T05:20:50.399Z,978.153
2018-11-25T05:22:50.377Z,978.149
2018-11-25T05:24:50.353Z,978.141
2018-11-25T05:26:50.124Z,978.135
2018-11-25T05:28:50.061Z,978.153
2018-11-25T05:30:50.130Z,978.153
2018-11-25T05:32:50.176Z,978.118
2018-11-25T05:34:50.524Z,978.105
2018-11-25T05:36:49.805Z,978.075
2018-11-25T05:38:49.843Z,978.058
2018-11-25T05:40:49.850Z,978.079
2018-11-25T05:42:49.905Z,978.094
2018-11-25T05:44:49.960Z,978.115
2018-11-25T05:46:50.284Z,978.126
2018-11-25T05:48:50.284Z,978.172
2018-11-25T05:50:50.446Z,978.211
2018-11-25T05:52:50.429Z,978.249
2018-11-25T05:54:50.613Z,978.279
2018-11-25T05:56:49.795Z,978.258
2018-11-25T05:58:49.852Z,978.240
2018-11-25T06:00:49.870Z,978.222
2018-11-25T06:02:49.881Z,978.209
2018-11-25T06:04:50.229Z,978.202
2018-11-25T06:06:50.422Z,978.206
2018-11-25T06:08:50.434Z,978.222
2018-11-25T06:10:50.437Z,978.233
2018-11-25T06:12:50.521Z,978.268
2018-11-25T06:14:50.501Z,978.269
2018-11-25T06:16:49.769Z,978.279
2018-11-25T06:18:49.861Z,978.286
2018-11-25T06:20:49.865Z,978.288
2018-11-25T06:22:49.990Z,978.298
2018-11-25T06:24:50.094Z,978.307
2018-11-25T06:26:50.338Z,978.283
2018-11-25T06:28:50.348Z,978.272
2018-11-25T06:30:50.326Z,978.272
2018-11-25T06:32:50.375Z,978.268
2018-11-25T06:34:49.907Z,978.283
2018-11-25T06:36:49.907Z,978.312
2018-11-25T06:38:49.883Z,978.317
2018-11-25T06:40:49.857Z,978.319
2018-11-25T06:42:49.866Z,978.311
2018-11-25T06:44:49.837Z,978.295
2018-11-25T06:46:49.988Z,978.294
2018-11-25T06:48:55.235Z,978.296
2018-11-25T06:50:50.257Z,978.283
2018-11-25T06:52:50.251Z,978.283
2018-11-25T06:54:50.276Z,978.321
2018-11-25T06:56:50.517Z,978.342
2018-11-25T06:58:50.543Z,978.375
2018-11-25T07:00:50.606Z,978.394
2018-11-25T07:02:50.599Z,978.453
2018-11-25T07:04:49.890Z,978.476
2018-11-25T07:06:50.127Z,978.467
2018-11-25T07:08:50.145Z,978.446
2018-11-25T07:10:50.148Z,978.445
2018-11-25T07:12:50.154Z,978.443
2018-11-25T07:14:50.211Z,978.439
2018-11-25T07:16:50.516Z,978.438
2018-11-25T07:18:50.652Z,978.449
2018-11-25T07:20:49.751Z,978.462
2018-11-25T07:22:49.724Z,978.460
2018-11-25T07:24:50.033Z,978.465
2018-11-25T07:26:50.233Z,978.479
2018-11-25T07:28:50.266Z,978.479
2018-11-25T07:30:50.308Z,978.477
2018-11-25T07:32:50.361Z,978.474
2018-11-25T07:34:49.625Z,978.461
2018-11-25T07:36:49.997Z,978.473
2018-11-25T07:38:49.969Z,978.485
2018-11-25T07:40:49.947Z,978.495
2018-11-25T07:42:50.007Z,978.483
2018-11-25T07:44:49.994Z,978.482
2018-11-25T07:46:50.259Z,978.484
2018-11-25T07:48:50.306Z,978.460
2018-11-25T07:50:50.356Z,978.435
2018-11-25T07:52:50.450Z,978.437
2018-11-25T07:54:50.453Z,978.446
2018-11-25T07:56:49.735Z,978.453
2018-11-25T07:58:49.783Z,978.465
2018-11-25T08:00:49.798Z,978.471
2018-11-25T08:02:49.849Z,978.450
2018-11-25T08:04:50.118Z,978.449
2018-11-25T08:06:50.297Z,978.426
2018-11-25T08:08:50.322Z,978.400
2018-11-25T08:10:50.301Z,978.394
2018-11-25T08:12:50.393Z,978.391
2018-11-25T08:14:50.355Z,978.374
2018-11-25T08:16:50.506Z,978.352
2018-11-25T08:18:50.559Z,978.349
2018-11-25T08:20:50.509Z,978.351
2018-11-25T08:22:50.524Z,978.367
2018-11-25T08:24:50.498Z,978.381
2018-11-25T08:26:49.744Z,978.370
2018-11-25T08:28:49.738Z,978.345
2018-11-25T08:30:49.738Z,978.319
2018-11-25T08:32:49.869Z,978.283
2018-11-25T08:34:50.101Z,978.282
2018-11-25T08:36:50.266Z,978.246
2018-11-25T08:38:50.220Z,978.199
2018-11-25T08:40:50.231Z,978.186
2018-11-25T08:42:50.275Z,978.170
2018-11-25T08:44:50.223Z,978.161
2018-11-25T08:46:50.307Z,978.164
2018-11-25T08:48:50.225Z,978.157
2018-11-25T08:50:50.270Z,978.126
2018-11-25T08:52:50.290Z,978.097
2018-11-25T08:54:50.377Z,978.091
2018-11-25T08:56:49.674Z,978.086
2018-11-25T08:58:49.740Z,978.082
2018-11-25T09:00:49.830Z,978.087
2018-11-25T09:02:49.809Z,978.064
2018-11-25T09:04:50.046Z,978.002
2018-11-25T09:06:50.282Z,977.972
2018-11-25T09:08:50.383Z,977.972
2018-11-25T09:10:50.303Z,977.963
2018-11-25T09:12:56.686Z,977.946
2018-11-25T09:14:49.797Z,977.935
2018-11-25T09:16:50.109Z,977.921
2018-11-25T09:18:50.102Z,977.902
2018-11-25T09:20:50.175Z,977.881
2018-11-25T09:22:50.268Z,977.863
2018-11-25T09:24:50.342Z,977.874
2018-11-25T09:26:50.607Z,977.861
2018-11-25T09:28:49.620Z,977.839
2018-11-25T09:30:49.767Z,977.825
2018-11-25T09:32:49.766Z,977.795
2018-11-25T09:34:50.389Z,977.758
2018-11-25T09:36:50.607Z,977.734
2018-11-25T09:38:49.633Z,977.686
2018-11-25T09:40:50.607Z,977.670
2018-11-25T09:42:49.643Z,977.643
2018-11-25T09:44:49.822Z,977.610
2018-11-25T09:46:50.068Z,977.570
2018-11-25T09:48:50.093Z,977.554
2018-11-25T09:50:50.083Z,977.542
2018-11-25T09:52:50.088Z,977.538
2018-11-25T09:54:50.130Z,977.505
2018-11-25T09:56:50.343Z,977.481
2018-11-25T09:58:50.371Z,977.472
2018-11-25T10:00:50.393Z,977.471
2018-11-25T10:02:50.452Z,977.451
2018-11-25T10:04:49.799Z,977.436
2018-11-25T10:06:50.029Z,977.406
2018-11-25T10:08:50.031Z,977.397
2018-11-25T10:10:52.992Z,977.324
2018-11-25T10:12:50.029Z,977.289
2018-11-25T10:14:50.096Z,977.279
2018-11-25T10:16:50.348Z,977.232
2018-11-25T10:18:50.369Z,977.205
2018-11-25T10:20:50.441Z,977.182
2018-11-25T10:22:50.462Z,977.182
2018-11-25T10:24:50.519Z,977.128
2018-11-25T10:26:49.745Z,977.078
2018-11-25T10:28:49.876Z,977.059
2018-11-25T10:30:49.951Z,977.002
2018-11-25T10:32:50.060Z,976.963
2018-11-25T10:34:50.528Z,976.869
2018-11-25T10:36:49.781Z,976.787
2018-11-25T10:38:49.772Z,976.758
2018-11-25T10:40:49.916Z,976.718
2018-11-25T10:42:49.897Z,976.695
2018-11-25T10:44:49.898Z,976.677
2018-11-25T10:46:50.157Z,976.648
2018-11-25T10:48:50.233Z,976.628
2018-11-25T10:50:51.527Z,976.588
2018-11-25T10:52:50.646Z,976.549
2018-11-25T10:54:49.650Z,976.561
2018-11-25T10:56:49.899Z,976.552
2018-11-25T10:58:49.895Z,976.519
2018-11-25T11:00:49.945Z,976.518
2018-11-25T11:02:49.994Z,976.523
2018-11-25T11:04:50.321Z,976.511
2018-11-25T11:06:50.514Z,976.505
2018-11-25T11:08:50.541Z,976.461
2018-11-25T11:10:50.560Z,976.453
2018-11-25T11:12:50.543Z,976.412
2018-11-25T11:14:49.672Z,976.411
2018-11-25T11:16:54.236Z,976.394
2018-11-25T11:18:50.277Z,976.381
2018-11-25T11:20:50.256Z,976.350
2018-11-25T11:22:50.305Z,976.325
2018-11-25T11:24:50.386Z,976.310
2018-11-25T11:26:49.741Z,976.273
2018-11-25T11:28:49.922Z,976.270
2018-11-25T11:30:50.160Z,976.263
2018-11-25T11:32:50.382Z,976.268
2018-11-25T11:34:49.731Z,976.263
2018-11-25T11:36:50.105Z,976.245
2018-11-25T11:38:50.196Z,976.219
2018-11-25T11:40:50.220Z,976.214
2018-11-25T11:42:50.229Z,976.216
2018-11-25T11:44:50.282Z,976.183
2018-11-25T11:46:50.374Z,976.140
2018-11-25T11:48:50.356Z,976.131
2018-11-25T11:50:50.388Z,976.113
2018-11-25T11:52:50.330Z,976.109
2018-11-25T11:54:50.369Z,976.084
2018-11-25T11:56:50.588Z,976.084
2018-11-25T11:58:49.626Z,976.025
2018-11-25T12:00:49.674Z,975.997
2018-11-25T12:02:49.726Z,975.934
2018-11-25T12:04:50.267Z,975.914
2018-11-25T12:06:50.518Z,975.892
2018-11-25T12:08:50.516Z,975.885
2018-11-25T12:10:50.448Z,975.858
2018-11-25T12:12:50.404Z,975.844
2018-11-25T12:14:50.564Z,975.832
2018-11-25T12:16:49.778Z,975.838
2018-11-25T12:18:49.740Z,975.848
2018-11-25T12:20:49.892Z,975.847
2018-11-25T12:22:49.941Z,975.842
2018-11-25T12:24:49.964Z,975.826
2018-11-25T12:26:50.153Z,975.827
2018-11-25T12:28:50.115Z,975.816
2018-11-25T12:30:50.113Z,975.821
2018-11-25T12:32:50.149Z,975.804
2018-11-25T12:34:50.600Z,975.810
2018-11-25T12:36:49.759Z,975.812
2018-11-25T12:38:49.750Z,975.803
2018-11-25T12:40:49.827Z,975.804
2018-11-25T12:42:49.909Z,975.775
2018-11-25T12:44:49.826Z,975.773
2018-11-25T12:46:49.968Z,975.740
2018-11-25T12:48:49.952Z,975.698
2018-11-25T12:50:49.962Z,975.666
2018-11-25T12:52:49.970Z,975.657
2018-11-25T12:54:49.932Z,975.590
2018-11-25T12:56:52.163Z,975.577
2018-11-25T12:58:50.104Z,975.572
2018-11-25T13:00:50.092Z,975.570
2018-11-25T13:02:50.114Z,975.551
2018-11-25T13:04:50.447Z,975.526
2018-11-25T13:06:49.759Z,975.507
2018-11-25T13:08:49.734Z,975.439
2018-11-25T13:10:49.866Z,975.414
2018-11-25T13:12:49.864Z,975.375
2018-11-25T13:14:49.806Z,975.339
2018-11-25T13:16:50.008Z,975.302
2018-11-25T13:18:50.026Z,975.290
2018-11-25T13:20:50.009Z,975.279
2018-11-25T13:22:49.949Z,975.275
2018-11-25T13:24:49.985Z,975.273
2018-11-25T13:26:50.141Z,975.255
2018-11-25T13:28:50.130Z,975.250
2018-11-25T13:30:50.195Z,975.206
2018-11-25T13:32:50.147Z,975.211
2018-11-25T13:34:50.392Z,975.202
2018-11-25T13:36:50.597Z,975.192
2018-11-25T13:38:49.679Z,975.232
2018-11-25T13:40:49.759Z,975.232
2018-11-25T13:42:49.780Z,975.262
2018-11-25T13:44:49.823Z,975.262
2018-11-25T13:46:50.005Z,975.254
2018-11-25T13:48:49.992Z,975.241
2018-11-25T13:50:50.121Z,975.239
2018-11-25T13:52:50.076Z,975.227
2018-11-25T13:54:50.056Z,975.209
2018-11-25T13:56:50.270Z,975.203
2018-11-25T13:58:50.214Z,975.199
2018-11-25T14:00:50.192Z,975.165
2018-11-25T14:02:49.700Z,975.149
2018-11-25T14:04:50.257Z,975.130
2018-11-25T14:06:50.565Z,975.123
2018-11-25T14:08:50.575Z,975.126
2018-11-25T14:10:49.638Z,975.136
2018-11-25T14:12:49.838Z,975.149
2018-11-25T14:14:49.797Z,975.145
2018-11-25T14:16:50.015Z,975.150
2018-11-25T14:18:49.922Z,975.153
2018-11-25T14:20:49.889Z,975.146
2018-11-25T14:22:49.928Z,975.153
2018-11-25T14:24:49.875Z,975.139
2018-11-25T14:26:50.010Z,975.131
2018-11-25T14:28:50.014Z,975.121
2018-11-25T14:30:50.030Z,975.106
2018-11-25T14:32:50.106Z,975.086
2018-11-25T14:34:50.264Z,975.064
2018-11-25T14:36:50.532Z,975.051
2018-11-25T14:38:50.491Z,974.996
2018-11-25T14:40:50.464Z,974.979
2018-11-25T14:42:50.479Z,974.962
2018-11-25T14:44:50.396Z,974.966
2018-11-25T14:46:50.526Z,974.965
2018-11-25T14:48:50.471Z,974.960
2018-11-25T14:50:50.429Z,974.971
2018-11-25T14:52:50.593Z,974.969
2018-11-25T14:54:51.625Z,974.973
2018-11-25T14:56:49.861Z,974.977
2018-11-25T14:58:49.897Z,974.967
2018-11-25T15:00:49.882Z,974.993
2018-11-25T15:02:49.848Z,975.002
2018-11-25T15:04:50.110Z,974.997
2018-11-25T15:06:50.285Z,974.982
2018-11-25T15:08:50.291Z,974.982
2018-11-25T15:10:50.292Z,974.961
2018-11-25T15:12:50.337Z,974.941
2018-11-25T15:14:50.297Z,974.884
2018-11-25T15:16:50.411Z,974.873
2018-11-25T15:18:50.438Z,974.858
2018-11-25T15:20:50.452Z,974.853
2018-11-25T15:22:50.522Z,974.853
2018-11-25T15:24:50.551Z,974.864
2018-11-25T15:26:49.628Z,974.868
2018-11-25T15:28:50.588Z,974.870
2018-11-25T15:30:49.656Z,974.874
2018-11-25T15:32:49.651Z,974.862
2018-11-25T15:34:50.243Z,974.826
2018-11-25T15:36:50.468Z,974.780
2018-11-25T15:38:50.508Z,974.738
2018-11-25T15:40:50.603Z,974.724
2018-11-25T15:42:50.607Z,974.662
2018-11-25T15:44:49.715Z,974.645
2018-11-25T15:46:49.948Z,974.574
2018-11-25T15:48:49.993Z,974.551
2018-11-25T15:50:49.976Z,974.509
2018-11-25T15:52:49.982Z,974.492
2018-11-25T15:54:49.974Z,974.475
2018-11-25T15:56:50.244Z,974.442
2018-11-25T15:58:50.261Z,974.413
2018-11-25T16:00:50.338Z,974.406
2018-11-25T16:02:50.364Z,974.406
2018-11-25T16:04:49.652Z,974.409
2018-11-25T16:06:49.990Z,974.409
2018-11-25T16:08:50.026Z,974.409
2018-11-25T16:10:50.037Z,974.421
2018-11-25T16:12:50.143Z,974.379
2018-11-25T16:14:50.143Z,974.376
2018-11-25T16:16:50.529Z,974.371
2018-11-25T16:18:50.531Z,974.364
2018-11-25T16:20:50.526Z,974.364
2018-11-25T16:22:50.497Z,974.303
2018-11-25T16:24:50.491Z,974.294
2018-11-25T16:26:49.674Z,974.248
2018-11-25T16:28:49.710Z,974.248
2018-11-25T16:30:49.733Z,974.195
2018-11-25T16:32:49.817Z,974.203
2018-11-25T16:34:50.192Z,974.232
2018-11-25T16:36:50.417Z,974.214
2018-11-25T16:38:50.540Z,974.210
2018-11-25T16:40:50.603Z,974.194
2018-11-25T16:42:49.744Z,974.194
2018-11-25T16:44:49.755Z,974.150
2018-11-25T16:46:49.932Z,974.138
2018-11-25T16:48:49.912Z,974.132
2018-11-25T16:50:49.839Z,974.136
2018-11-25T16:52:49.830Z,974.164
2018-11-25T16:54:49.883Z,974.195
2018-11-25T16:56:50.196Z,974.205
2018-11-25T16:58:50.295Z,974.238
2018-11-25T17:00:50.283Z,974.290
2018-11-25T17:02:50.315Z,974.303
2018-11-25T17:04:49.639Z,974.336
2018-11-25T17:06:49.812Z,974.337
2018-11-25T17:08:49.805Z,974.359
2018-11-25T17:10:49.783Z,974.373
2018-11-25T17:12:49.889Z,974.411
2018-11-25T17:14:49.907Z,974.419
2018-11-25T17:16:50.082Z,974.408
2018-11-25T17:18:50.034Z,974.390
2018-11-25T17:20:50.056Z,974.399
2018-11-25T17:22:50.058Z,974.410
2018-11-25T17:24:50.156Z,974.423
2018-11-25T17:26:50.259Z,974.463
2018-11-25T17:28:50.278Z,974.463
2018-11-25T17:30:50.231Z,974.500
2018-11-25T17:32:50.165Z,974.522
2018-11-25T17:34:50.434Z,974.522
2018-11-25T17:36:49.687Z,974.502
2018-11-25T17:38:49.739Z,974.499
2018-11-25T17:40:49.742Z,974.510
2018-11-25T17:42:49.825Z,974.510
2018-11-25T17:44:49.782Z,974.505
2018-11-25T17:46:50.139Z,974.504
2018-11-25T17:48:50.038Z,974.472
2018-11-25T17:50:50.006Z,974.436
2018-11-25T17:52:49.952Z,974.416
2018-11-25T17:54:49.928Z,974.398
2018-11-25T17:56:50.142Z,974.404
2018-11-25T17:58:50.130Z,974.429
2018-11-25T18:00:50.087Z,974.469
2018-11-25T18:02:50.091Z,974.486
2018-11-25T18:04:50.317Z,974.485
2018-11-25T18:06:50.587Z,974.468
2018-11-25T18:08:49.612Z,974.455
2018-11-25T18:10:50.582Z,974.459
2018-11-25T18:12:49.628Z,974.443
2018-11-25T18:14:49.652Z,974.450
2018-11-25T18:16:49.913Z,974.441
2018-11-25T18:18:49.947Z,974.431
2018-11-25T18:20:49.882Z,974.422
2018-11-25T18:22:49.915Z,974.425
2018-11-25T18:24:49.958Z,974.414
2018-11-25T18:26:50.195Z,974.404
2018-11-25T18:28:50.203Z,974.384
2018-11-25T18:30:50.147Z,974.415
2018-11-25T18:32:50.225Z,974.442
2018-11-25T18:34:49.669Z,974.456
2018-11-25T18:36:49.831Z,974.502
2018-11-25T18:38:49.799Z,974.532
2018-11-25T18:40:49.793Z,974.533
2018-11-25T18:42:49.933Z,974.497
2018-11-25T18:44:49.963Z,974.497
2018-11-25T18:46:50.243Z,974.470
2018-11-25T18:48:50.177Z,974.470
2018-11-25T18:50:50.135Z,974.460
2018-11-25T18:52:50.139Z,974.446
2018-11-25T18:54:50.099Z,974.442
2018-11-25T18:56:50.359Z,974.443
2018-11-25T18:58:50.343Z,974.458
2018-11-25T19:00:50.355Z,974.441
2018-11-25T19:02:50.471Z,974.436
2018-11-25T19:04:49.715Z,974.411
2018-11-25T19:06:50.087Z,974.405
2018-11-25T19:08:50.048Z,974.391
2018-11-25T19:10:49.992Z,974.387
2018-11-25T19:12:49.972Z,974.369
2018-11-25T19:14:49.918Z,974.360
2018-11-25T19:16:50.101Z,974.354
2018-11-25T19:18:50.093Z,974.359
2018-11-25T19:20:50.040Z,974.359
2018-11-25T19:22:49.986Z,974.345
2018-11-25T19:24:49.994Z,974.340
2018-11-25T19:26:50.184Z,974.328
2018-11-25T19:28:50.221Z,974.327
2018-11-25T19:30:50.178Z,974.335
2018-11-25T19:32:50.280Z,974.324
2018-11-25T19:34:49.626Z,974.323
2018-11-25T19:36:49.808Z,974.309
2018-11-25T19:38:49.826Z,974.295
2018-11-25T19:40:49.897Z,974.285
2018-11-25T19:42:49.923Z,974.285
2018-11-25T19:44:49.983Z,974.240
2018-11-25T19:46:50.067Z,974.211
2018-11-25T19:48:50.057Z,974.179
2018-11-25T19:50:50.008Z,974.160
2018-11-25T19:52:49.962Z,974.106
2018-11-25T19:54:49.964Z,974.088
2018-11-25T19:56:50.221Z,974.092
2018-11-25T19:58:50.197Z,974.078
2018-11-25T20:00:50.147Z,974.073
2018-11-25T20:02:50.069Z,974.088
2018-11-25T20:04:50.600Z,974.084
2018-11-25T20:06:49.821Z,974.075
2018-11-25T20:08:49.831Z,974.090
2018-11-25T20:10:49.855Z,974.087
2018-11-25T20:12:49.850Z,974.073
2018-11-25T20:14:50.585Z,974.083
2018-11-25T20:16:49.876Z,974.086
2018-11-25T20:18:49.857Z,974.092
2018-11-25T20:20:49.803Z,974.104
2018-11-25T20:22:49.788Z,974.112
2018-11-25T20:24:49.828Z,974.127
2018-11-25T20:26:49.994Z,974.096
2018-11-25T20:28:49.949Z,974.080
2018-11-25T20:30:49.939Z,974.068
2018-11-25T20:32:49.941Z,974.068
2018-11-25T20:34:50.260Z,974.069
2018-11-25T20:36:50.360Z,974.063
2018-11-25T20:38:50.335Z,974.054
2018-11-25T20:40:50.384Z,974.049
2018-11-25T20:42:50.308Z,974.048
2018-11-25T20:44:50.348Z,974.046
2018-11-25T20:46:50.508Z,974.051
2018-11-25T20:48:50.487Z,974.049
2018-11-25T20:50:50.599Z,974.045
2018-11-25T20:52:50.576Z,974.042
2018-11-25T20:54:49.638Z,974.023
2018-11-25T20:56:49.852Z,974.017
2018-11-25T20:58:49.875Z,974.020
2018-11-25T21:00:49.818Z,974.029
2018-11-25T21:02:49.769Z,974.021
2018-11-25T21:04:50.332Z,974.010
2018-11-25T21:06:49.691Z,974.010
2018-11-25T21:08:49.711Z,974.028
2018-11-25T21:10:49.754Z,974.014
2018-11-25T21:12:49.868Z,973.993
2018-11-25T21:14:49.975Z,973.975
2018-11-25T21:16:50.087Z,973.978
2018-11-25T21:18:50.121Z,973.967
2018-11-25T21:20:51.648Z,973.937
2018-11-25T21:22:49.854Z,973.948
2018-11-25T21:24:49.817Z,973.961
2018-11-25T21:26:49.944Z,973.958
2018-11-25T21:28:49.963Z,973.947
2018-11-25T21:30:50.030Z,973.955
2018-11-25T21:32:50.104Z,973.957
2018-11-25T21:34:50.358Z,973.971
2018-11-25T21:36:49.641Z,973.985
2018-11-25T21:38:49.724Z,973.993
2018-11-25T21:40:49.778Z,973.993
2018-11-25T21:42:49.885Z,974.011
2018-11-25T21:44:49.857Z,974.005
2018-11-25T21:46:50.140Z,973.993
2018-11-25T21:48:50.175Z,973.994
2018-11-25T21:50:50.235Z,973.995
2018-11-25T21:52:50.292Z,974.002
2018-11-25T21:54:50.297Z,974.017
2018-11-25T21:56:50.592Z,974.059
2018-11-25T21:58:49.607Z,974.074
2018-11-25T22:00:49.721Z,974.069
2018-11-25T22:02:49.681Z,974.084
2018-11-25T22:04:50.170Z,974.066
2018-11-25T22:06:50.414Z,974.068
2018-11-25T22:08:50.416Z,974.050
2018-11-25T22:10:50.387Z,974.047
2018-11-25T22:12:50.479Z,974.040
2018-11-25T22:14:50.554Z,974.026
2018-11-25T22:16:49.797Z,974.021
2018-11-25T22:18:49.810Z,974.005
2018-11-25T22:20:49.904Z,974.005
2018-11-25T22:22:49.986Z,973.988
2018-11-25T22:24:49.984Z,973.988
2018-11-25T22:26:50.221Z,974.007
2018-11-25T22:28:50.160Z,974.010
2018-11-25T22:30:50.165Z,974.031
2018-11-25T22:32:50.113Z,974.023
2018-11-25T22:34:50.409Z,974.035
2018-11-25T22:36:49.738Z,974.039
2018-11-25T22:38:49.738Z,974.031
2018-11-25T22:40:49.768Z,974.012
2018-11-25T22:42:49.798Z,974.009
2018-11-25T22:44:49.857Z,974.011
2018-11-25T22:46:50.078Z,974.029
2018-11-25T22:48:50.093Z,974.035
2018-11-25T22:50:50.098Z,974.033
2018-11-25T22:52:50.100Z,974.025
2018-11-25T22:54:50.072Z,974.007
2018-11-25T22:56:50.222Z,974.000
2018-11-25T22:58:50.365Z,973.971
2018-11-25T23:00:50.383Z,973.966
2018-11-25T23:02:50.328Z,973.981
2018-11-25T23:04:49.688Z,973.995
2018-11-25T23:06:49.919Z,974.008
2018-11-25T23:08:49.811Z,974.026
2018-11-25T23:10:49.835Z,974.055
2018-11-25T23:12:49.880Z,974.067
2018-11-25T23:14:49.863Z,974.086
2018-11-25T23:16:50.050Z,974.086
2018-11-25T23:18:50.046Z,974.089
2018-11-25T23:20:50.091Z,974.084
2018-11-25T23:22:50.170Z,974.076
2018-11-25T23:24:50.178Z,974.076
2018-11-25T23:26:50.298Z,974.074
2018-11-25T23:28:50.267Z,974.061
2018-11-25T23:30:50.248Z,974.042
2018-11-25T23:32:50.182Z,974.030
2018-11-25T23:34:49.688Z,974.017
2018-11-25T23:36:49.884Z,974.018
2018-11-25T23:38:49.899Z,974.058
2018-11-25T23:40:49.838Z,974.108
2018-11-25T23:42:49.881Z,974.136
2018-11-25T23:44:49.872Z,974.147
2018-11-25T23:46:50.073Z,974.144
2018-11-25T23:48:50.104Z,974.152
2018-11-25T23:50:50.078Z,974.119
2018-11-25T23:52:50.098Z,974.116
2018-11-25T23:54:50.101Z,974.112
2018-11-25T23:56:50.238Z,974.103
2018-11-25T23:58:50.300Z,974.087
